»·PEaware :: N127CB KSNA-L71

N127CB :: KSNA-L71

FLIGHT INFORMATION

Flight Status: Arrived
Operator: Privately registered:
United States
More flights under this callsign
Pilot: Chris B. (15698)
Aircraft: ECLIPSE 500
(EA50)
More flights by this aircraft type
Origin: KSNA John Wayne-Orange Co
United States
Destination: L71 California City Mun
United States
More flights between these airports :: More routes between these airports
Route: SLI V8 V363 POM V197 PMD
File this flight plan on PilotEdge
Remarks:
Altitude:
(Current/Filed)
15,000ft
Speed:
(Current/Filed)
300kts
Departed: 25-Aug-17 08:40 AM
Arrived: 25-Aug-17 09:12 AM
Distance/Time
Traveled:
89nm/0:31
Distance/Time
To Go:
Arrived

Flight Plot

Page will automatically refresh every two minutes.

Flight plan parsing failed; only flown route is shown


Map Options




Map Legend


Flown Route
Filed Route
Departure Airport
Arrival Airport
Navaid (VOR, NDB)
Fix

Horizontal Profiles

Position Reports

Time Latitude Longitude Heading Altitude Ground
Speed
25-Aug-17 08:23 33.674464 -117.871842 296 59ft 0kts
25-Aug-17 08:24 33.674464 -117.871842 296 59ft 0kts
25-Aug-17 08:25 33.674464 -117.871842 296 59ft 0kts
25-Aug-17 08:26 33.674464 -117.871842 296 59ft 0kts
25-Aug-17 08:27 33.674464 -117.871842 296 59ft 0kts
25-Aug-17 08:28 33.674464 -117.871842 296 59ft 0kts
25-Aug-17 08:29 33.674464 -117.871842 296 59ft 0kts
25-Aug-17 08:30 33.674464 -117.871842 296 59ft 0kts
25-Aug-17 08:31 33.674464 -117.871842 296 59ft 0kts
25-Aug-17 08:32 33.674464 -117.871842 296 59ft 0kts
25-Aug-17 08:33 33.674464 -117.871842 296 59ft 0kts
25-Aug-17 08:34 33.674464 -117.871842 296 59ft 0kts
25-Aug-17 08:35 33.674464 -117.871842 296 59ft 0kts
25-Aug-17 08:36 33.674464 -117.871842 296 59ft 0kts
25-Aug-17 08:37 33.674464 -117.871842 296 59ft 0kts
25-Aug-17 08:38 33.674464 -117.871842 296 59ft 0kts
25-Aug-17 08:39 33.676319 -117.869957 28 59ft 28kts
25-Aug-17 08:40 33.681921 -117.866127 102 59ft 7kts
25-Aug-17 08:41 33.681914 -117.866092 103 59ft 0kts
25-Aug-17 08:42 33.681914 -117.866092 103 59ft 0kts
25-Aug-17 08:43 33.679987 -117.866126 207 59ft 33kts
25-Aug-17 08:44 33.654533 -117.880377 187 1055ft 164kts
25-Aug-17 08:45 33.607859 -117.886454 186 3992ft 184kts
25-Aug-17 08:46 33.559090 -117.897424 218 6910ft 201kts
25-Aug-17 08:47 33.575308 -117.956783 311 6991ft 209kts
25-Aug-17 08:48 33.614419 -118.005342 311 8680ft 222kts
25-Aug-17 08:49 33.664470 -118.026232 352 11420ft 232kts
25-Aug-17 08:50 33.718447 -118.038699 350 13358ft 253kts
25-Aug-17 08:51 33.772232 -118.038460 39 13988ft 282kts
25-Aug-17 08:52 33.796584 -117.985273 72 13996ft 285kts
25-Aug-17 08:53 33.817507 -117.926368 53 13981ft 308kts
25-Aug-17 08:54 33.877976 -117.909277 354 13993ft 327kts
25-Aug-17 08:55 33.940874 -117.926160 344 13995ft 328kts
25-Aug-17 08:56 34.002506 -117.944463 349 14005ft 328kts
25-Aug-17 08:57 34.066315 -117.958757 351 14016ft 328kts
25-Aug-17 08:58 34.133953 -117.972086 352 14016ft 327kts
25-Aug-17 08:59 34.214328 -117.987129 352 14014ft 327kts
25-Aug-17 09:00 34.297282 -118.002398 352 14028ft 328kts
25-Aug-17 09:01 34.385791 -118.018637 352 14058ft 329kts
25-Aug-17 09:02 34.471249 -118.034332 352 14075ft 330kts
25-Aug-17 09:03 34.554234 -118.049816 354 11082ft 309kts
25-Aug-17 09:04 34.620014 -118.062034 355 9993ft 220kts
25-Aug-17 09:05 34.679801 -118.058887 7 8683ft 283kts
25-Aug-17 09:06 34.748615 -118.052899 6 6880ft 268kts
25-Aug-17 09:07 34.811171 -118.047437 5 5834ft 193kts
25-Aug-17 09:08 34.866009 -118.042507 5 5338ft 199kts
25-Aug-17 09:09 34.920610 -118.037577 5 5011ft 198kts
25-Aug-17 09:10 34.975411 -118.032635 4 5008ft 199kts
25-Aug-17 09:11 35.030010 -118.042015 351 5043ft 185kts
25-Aug-17 09:12 35.069664 -118.049909 349 4679ft 130kts
25-Aug-17 09:13 35.099617 -118.058838 348 4284ft 105kts
25-Aug-17 09:14 35.127187 -118.064639 1 3918ft 109kts
25-Aug-17 09:15 35.146312 -118.041489 77 2843ft 104kts
25-Aug-17 09:16 35.151199 -118.016720 98 2438ft 25kts
25-Aug-17 09:17 35.150124 -118.015770 90 2438ft 0kts

Navigation Log

Ident Type
Flight plan parsing failed, navigation log unavailable